createdAt,value
2019-02-03T00:00:08.459Z,90.70
2019-02-03T00:01:08.009Z,90.70
2019-02-03T00:02:05.125Z,90.70
2019-02-03T00:03:06.133Z,90.70
2019-02-03T00:04:10.509Z,90.70
2019-02-03T00:05:05.423Z,90.70
2019-02-03T00:06:08.079Z,90.70
2019-02-03T00:07:07.624Z,90.70
2019-02-03T00:08:08.135Z,90.70
2019-02-03T00:09:05.060Z,90.80
2019-02-03T00:10:05.083Z,90.80
2019-02-03T00:11:07.684Z,90.80
2019-02-03T00:12:08.196Z,90.70
2019-02-03T00:13:05.112Z,90.80
2019-02-03T00:14:05.369Z,90.70
2019-02-03T00:15:05.598Z,90.80
2019-02-03T00:16:05.744Z,90.90
2019-02-03T00:17:05.897Z,90.80
2019-02-03T00:18:08.458Z,90.80
2019-02-03T00:19:09.086Z,90.80
2019-02-03T00:20:05.064Z,90.90
2019-02-03T00:21:05.106Z,90.80
2019-02-03T00:22:05.252Z,90.80
2019-02-03T00:23:05.320Z,90.80
2019-02-03T00:24:05.392Z,90.80
2019-02-03T00:25:05.467Z,90.80
2019-02-03T00:26:08.241Z,90.80
2019-02-03T00:27:05.381Z,90.90
2019-02-03T00:28:05.440Z,90.90
2019-02-03T00:29:05.483Z,90.90
2019-02-03T00:30:08.452Z,90.90
2019-02-03T00:31:05.336Z,90.90
2019-02-03T00:32:05.364Z,90.90
2019-02-03T00:33:05.485Z,90.90
2019-02-03T00:34:05.643Z,90.90
2019-02-03T00:35:05.786Z,90.90
2019-02-03T00:36:06.376Z,90.90
2019-02-03T00:37:18.539Z,90.90
2019-02-03T00:38:23.799Z,90.90
2019-02-03T00:39:05.246Z,91.10
2019-02-03T00:40:08.119Z,90.90
2019-02-03T00:41:05.304Z,90.90
2019-02-03T00:42:05.537Z,90.90
2019-02-03T00:43:08.287Z,90.90
2019-02-03T00:44:05.613Z,90.90
2019-02-03T00:45:08.501Z,90.90
2019-02-03T00:46:05.419Z,90.90
2019-02-03T00:47:05.641Z,90.90
2019-02-03T00:48:05.767Z,90.90
2019-02-03T00:49:05.796Z,90.90
2019-02-03T00:50:05.402Z,90.90
2019-02-03T00:51:10.387Z,90.90
2019-02-03T00:52:05.451Z,90.90
2019-02-03T00:53:05.838Z,90.90
2019-02-03T00:54:08.455Z,90.80
2019-02-03T00:55:05.372Z,90.90
2019-02-03T00:56:05.433Z,90.80
2019-02-03T00:57:05.564Z,90.80
2019-02-03T00:58:05.647Z,90.80
2019-02-03T00:59:08.197Z,90.90
2019-02-03T01:00:07.660Z,90.80
2019-02-03T01:01:05.639Z,90.90
2019-02-03T01:02:08.281Z,90.90
2019-02-03T01:03:07.690Z,90.70
2019-02-03T01:04:05.633Z,90.80
2019-02-03T01:05:08.205Z,90.70
2019-02-03T01:06:05.242Z,90.70
2019-02-03T01:07:07.944Z,90.70
2019-02-03T01:08:08.517Z,90.70
2019-02-03T01:09:05.471Z,90.70
2019-02-03T01:10:06.018Z,90.70
2019-02-03T01:11:05.367Z,90.70
2019-02-03T01:12:05.493Z,90.70
2019-02-03T01:13:05.571Z,90.70
2019-02-03T01:14:05.684Z,90.70
2019-02-03T01:15:05.731Z,90.80
2019-02-03T01:16:08.294Z,90.70
2019-02-03T01:17:05.276Z,90.80
2019-02-03T01:18:07.813Z,90.90
2019-02-03T01:19:05.760Z,90.90
2019-02-03T01:20:10.881Z,90.90
2019-02-03T01:21:05.874Z,91.00
2019-02-03T01:22:08.491Z,91.00
2019-02-03T01:23:05.431Z,91.00
2019-02-03T01:24:05.655Z,91.00
2019-02-03T01:25:06.165Z,91.10
2019-02-03T01:26:05.842Z,91.10
2019-02-03T01:27:10.953Z,91.20
2019-02-03T01:28:05.876Z,91.20
2019-02-03T01:29:05.998Z,91.10
2019-02-03T01:30:05.064Z,91.20
2019-02-03T01:31:05.248Z,91.20
2019-02-03T01:32:05.373Z,91.20
2019-02-03T01:33:05.199Z,91.30
2019-02-03T01:34:05.557Z,91.40
2019-02-03T01:35:05.584Z,91.40
2019-02-03T01:36:05.651Z,91.40
2019-02-03T01:37:05.763Z,91.40
2019-02-03T01:38:05.877Z,91.50
2019-02-03T01:39:05.993Z,91.50
2019-02-03T01:40:05.240Z,91.60
2019-02-03T01:41:05.586Z,91.70
2019-02-03T01:42:07.488Z,91.80
2019-02-03T01:43:05.452Z,91.70
2019-02-03T01:44:05.612Z,91.80
2019-02-03T01:45:05.875Z,91.80
2019-02-03T01:46:05.072Z,91.80
2019-02-03T01:47:05.503Z,91.80
2019-02-03T01:48:05.519Z,91.70
2019-02-03T01:49:05.926Z,91.70
2019-02-03T01:50:05.122Z,91.70
2019-02-03T01:51:07.668Z,91.80
2019-02-03T01:52:05.619Z,91.70
2019-02-03T01:53:05.659Z,91.70
2019-02-03T01:54:05.706Z,91.70
2019-02-03T01:55:05.763Z,91.70
2019-02-03T01:56:05.828Z,91.70
2019-02-03T01:57:11.094Z,91.70
2019-02-03T01:58:05.114Z,91.70
2019-02-03T01:59:05.036Z,91.60
2019-02-03T02:00:07.587Z,91.50
2019-02-03T02:01:08.046Z,91.50
2019-02-03T02:02:05.058Z,91.50
2019-02-03T02:03:05.132Z,91.50
2019-02-03T02:04:06.531Z,91.50
2019-02-03T02:05:06.026Z,91.50
2019-02-03T02:06:05.271Z,91.50
2019-02-03T02:07:05.558Z,91.50
2019-02-03T02:08:05.928Z,91.40
2019-02-03T02:09:04.997Z,91.50
2019-02-03T02:10:05.147Z,91.50
2019-02-03T02:11:05.585Z,91.50
2019-02-03T02:12:05.695Z,91.40
2019-02-03T02:13:05.996Z,91.40
2019-02-03T02:14:05.341Z,91.50
2019-02-03T02:15:07.884Z,91.30
2019-02-03T02:16:08.351Z,91.30
2019-02-03T02:17:05.387Z,91.40
2019-02-03T02:18:05.426Z,91.20
2019-02-03T02:19:05.446Z,91.20
2019-02-03T02:20:08.119Z,91.30
2019-02-03T02:21:05.469Z,91.20
2019-02-03T02:22:10.511Z,91.20
2019-02-03T02:23:05.697Z,91.20
2019-02-03T02:24:05.890Z,91.20
2019-02-03T02:25:05.070Z,91.30
2019-02-03T02:26:07.828Z,91.30
2019-02-03T02:27:05.806Z,91.30
2019-02-03T02:28:07.657Z,91.30
2019-02-03T02:29:05.627Z,91.30
2019-02-03T02:30:05.039Z,91.20
2019-02-03T02:31:06.431Z,91.20
2019-02-03T02:32:05.495Z,91.20
2019-02-03T02:33:08.021Z,91.20
2019-02-03T02:34:06.037Z,91.20
2019-02-03T02:35:05.208Z,91.20
2019-02-03T02:36:05.389Z,91.20
2019-02-03T02:37:08.051Z,91.20
2019-02-03T02:38:07.810Z,91.20
2019-02-03T02:39:05.895Z,91.20
2019-02-03T02:40:13.698Z,91.20
2019-02-03T02:41:05.819Z,91.30
2019-02-03T02:42:05.818Z,91.20
2019-02-03T02:43:05.902Z,91.20
2019-02-03T02:44:04.972Z,91.20
2019-02-03T02:45:05.261Z,91.20
2019-02-03T02:46:05.627Z,91.10
2019-02-03T02:47:05.693Z,91.20
2019-02-03T02:48:05.814Z,91.20
2019-02-03T02:49:05.953Z,91.20
2019-02-03T02:50:08.029Z,91.20
2019-02-03T02:51:05.089Z,91.20
2019-02-03T02:52:05.196Z,91.20
2019-02-03T02:53:05.495Z,91.20
2019-02-03T02:54:05.572Z,91.20
2019-02-03T02:55:05.596Z,91.20
2019-02-03T02:56:05.664Z,91.10
2019-02-03T02:57:05.691Z,91.10
2019-02-03T02:58:08.335Z,91.00
2019-02-03T02:59:05.347Z,90.90
2019-02-03T03:00:08.011Z,90.80
2019-02-03T03:01:05.229Z,90.90
2019-02-03T03:02:08.308Z,90.90
2019-02-03T03:03:08.098Z,90.80
2019-02-03T03:04:05.984Z,90.90
2019-02-03T03:05:05.131Z,90.80
2019-02-03T03:06:07.773Z,90.70
2019-02-03T03:07:05.771Z,90.80
2019-02-03T03:08:19.716Z,90.90
2019-02-03T03:09:08.519Z,91.00
2019-02-03T03:10:08.422Z,90.90
2019-02-03T03:11:05.713Z,90.90
2019-02-03T03:12:05.831Z,91.00
2019-02-03T03:13:08.407Z,90.90
2019-02-03T03:14:07.934Z,91.00
2019-02-03T03:15:05.874Z,91.00
2019-02-03T03:16:05.936Z,91.00
2019-02-03T03:17:05.045Z,90.80
2019-02-03T03:18:05.153Z,90.90
2019-02-03T03:19:05.579Z,91.00
2019-02-03T03:20:05.777Z,91.00
2019-02-03T03:21:07.974Z,90.90
2019-02-03T03:22:08.475Z,91.10
2019-02-03T03:23:07.965Z,90.90
2019-02-03T03:24:05.887Z,90.90
2019-02-03T03:25:05.944Z,91.10
2019-02-03T03:26:07.793Z,91.10
2019-02-03T03:27:07.725Z,91.10
2019-02-03T03:28:08.221Z,90.90
2019-02-03T03:29:05.258Z,91.00
2019-02-03T03:30:05.729Z,90.90
2019-02-03T03:31:13.431Z,90.90
2019-02-03T03:32:07.975Z,90.80
2019-02-03T03:33:05.961Z,90.80
2019-02-03T03:34:05.516Z,90.70
2019-02-03T03:35:06.028Z,90.70
2019-02-03T03:36:05.298Z,90.60
2019-02-03T03:37:08.008Z,90.50
2019-02-03T03:38:07.563Z,90.50
2019-02-03T03:39:05.643Z,90.50
2019-02-03T03:40:05.823Z,90.50
2019-02-03T03:41:08.577Z,90.40
2019-02-03T03:42:05.942Z,90.40
2019-02-03T03:43:05.399Z,90.40
2019-02-03T03:44:05.869Z,90.40
2019-02-03T03:45:11.011Z,90.40
2019-02-03T03:46:07.116Z,90.50
2019-02-03T03:47:05.227Z,90.40
2019-02-03T03:48:05.334Z,90.40
2019-02-03T03:49:05.383Z,90.50
2019-02-03T03:50:06.110Z,90.50
2019-02-03T03:51:10.541Z,90.60
2019-02-03T03:52:07.975Z,90.50
2019-02-03T03:53:06.062Z,90.60
2019-02-03T03:54:07.735Z,90.60
2019-02-03T03:55:05.643Z,90.60
2019-02-03T03:56:08.206Z,90.50
2019-02-03T03:57:05.170Z,90.60
2019-02-03T03:58:05.639Z,90.50
2019-02-03T03:59:04.991Z,90.50
2019-02-03T04:00:05.036Z,90.50
2019-02-03T04:01:05.124Z,90.50
2019-02-03T04:02:07.734Z,90.50
2019-02-03T04:03:08.195Z,90.50
2019-02-03T04:04:05.112Z,90.60
2019-02-03T04:05:07.679Z,90.60
2019-02-03T04:06:05.966Z,90.70
2019-02-03T04:07:07.789Z,90.70
2019-02-03T04:08:08.257Z,90.70
2019-02-03T04:09:05.213Z,90.70
2019-02-03T04:10:05.403Z,90.70
2019-02-03T04:11:05.628Z,90.70
2019-02-03T04:13:05.244Z,90.70
2019-02-03T04:13:10.838Z,90.80
2019-02-03T04:14:06.109Z,90.70
2019-02-03T04:15:05.401Z,90.80
2019-02-03T04:16:05.615Z,90.70
2019-02-03T04:17:08.224Z,90.80
2019-02-03T04:18:05.263Z,90.80
2019-02-03T04:19:05.526Z,90.80
2019-02-03T04:20:05.556Z,90.70
2019-02-03T04:21:08.123Z,90.70
2019-02-03T04:22:05.271Z,90.80
2019-02-03T04:23:05.605Z,90.70
2019-02-03T04:24:08.139Z,90.60
2019-02-03T04:25:07.657Z,90.50
2019-02-03T04:26:08.300Z,90.60
2019-02-03T04:27:05.249Z,90.60
2019-02-03T04:28:05.370Z,90.40
2019-02-03T04:29:07.965Z,90.40
2019-02-03T04:30:06.170Z,90.40
2019-02-03T04:31:05.384Z,90.40
2019-02-03T04:32:08.005Z,90.40
2019-02-03T04:33:06.026Z,90.30
2019-02-03T04:34:05.452Z,90.40
2019-02-03T04:35:05.649Z,90.40
2019-02-03T04:36:05.872Z,90.40
2019-02-03T04:37:11.102Z,90.30
2019-02-03T04:38:07.564Z,90.30
2019-02-03T04:39:05.531Z,90.40
2019-02-03T04:40:05.660Z,90.40
2019-02-03T04:41:05.830Z,90.50
2019-02-03T04:42:05.940Z,90.40
2019-02-03T04:43:05.076Z,90.50
2019-02-03T04:44:05.185Z,90.40
2019-02-03T04:45:07.888Z,90.30
2019-02-03T04:46:05.888Z,90.50
2019-02-03T04:47:05.993Z,90.40
2019-02-03T04:48:05.068Z,90.40
2019-02-03T04:49:07.701Z,90.40
2019-02-03T04:50:05.670Z,90.40
2019-02-03T04:51:10.970Z,90.30
2019-02-03T04:52:08.692Z,90.30
2019-02-03T04:53:05.626Z,90.20
2019-02-03T04:54:08.257Z,90.10
2019-02-03T04:55:08.460Z,90.10
2019-02-03T04:56:08.322Z,90.00
2019-02-03T04:57:05.385Z,90.00
2019-02-03T04:58:08.205Z,90.00
2019-02-03T04:59:05.152Z,90.00
2019-02-03T05:00:07.748Z,89.90
2019-02-03T05:01:08.286Z,89.90
2019-02-03T05:02:07.983Z,89.90
2019-02-03T05:03:05.917Z,90.00
2019-02-03T05:04:05.049Z,89.90
2019-02-03T05:05:05.160Z,90.00
2019-02-03T05:06:07.950Z,90.10
2019-02-03T05:07:08.614Z,90.10
2019-02-03T05:08:05.561Z,90.10
2019-02-03T05:09:11.756Z,90.10
2019-02-03T05:10:05.812Z,90.00
2019-02-03T05:11:06.246Z,90.10
2019-02-03T05:12:08.166Z,90.20
2019-02-03T05:13:05.138Z,90.00
2019-02-03T05:14:07.772Z,90.20
2019-02-03T05:15:05.711Z,90.00
2019-02-03T05:16:05.648Z,90.20
2019-02-03T05:17:05.800Z,90.20
2019-02-03T05:18:05.859Z,90.20
2019-02-03T05:19:06.301Z,90.30
2019-02-03T05:20:05.750Z,90.30
2019-02-03T05:21:05.883Z,90.40
2019-02-03T05:22:07.621Z,90.40
2019-02-03T05:23:05.592Z,90.40
2019-02-03T05:24:08.195Z,90.20
2019-02-03T05:25:10.542Z,90.30
2019-02-03T05:26:08.021Z,90.30
2019-02-03T05:27:06.468Z,90.30
2019-02-03T05:28:05.816Z,90.20
2019-02-03T05:29:05.931Z,90.30
2019-02-03T05:30:04.976Z,90.20
2019-02-03T05:31:05.079Z,90.20
2019-02-03T05:32:08.096Z,90.20
2019-02-03T05:33:05.064Z,90.20
2019-02-03T05:34:05.220Z,90.10
2019-02-03T05:35:05.556Z,90.00
2019-02-03T05:36:05.093Z,90.00
2019-02-03T05:37:07.646Z,89.90
2019-02-03T05:38:08.297Z,89.90
2019-02-03T05:39:07.826Z,89.90
2019-02-03T05:40:05.057Z,89.90
2019-02-03T05:41:05.581Z,89.90
2019-02-03T05:42:05.701Z,89.90
2019-02-03T05:43:06.195Z,89.90
2019-02-03T05:44:08.211Z,89.80
2019-02-03T05:45:07.832Z,89.70
2019-02-03T05:46:05.839Z,89.70
2019-02-03T05:47:06.994Z,89.60
2019-02-03T05:48:07.881Z,89.50
2019-02-03T05:49:08.294Z,89.50
2019-02-03T05:50:05.205Z,89.60
2019-02-03T05:51:06.167Z,89.60
2019-02-03T05:52:07.767Z,89.60
2019-02-03T05:53:05.728Z,89.60
2019-02-03T05:54:08.360Z,89.60
2019-02-03T05:55:05.348Z,89.60
2019-02-03T05:56:05.646Z,89.60
2019-02-03T05:57:05.900Z,89.60
2019-02-03T05:58:05.005Z,89.60
2019-02-03T05:59:05.367Z,89.60
2019-02-03T06:00:05.750Z,89.60
2019-02-03T06:01:05.861Z,89.60
2019-02-03T06:02:05.969Z,89.60
2019-02-03T06:03:10.175Z,89.50
2019-02-03T06:04:05.238Z,89.60
2019-02-03T06:05:05.515Z,89.60
2019-02-03T06:06:05.535Z,89.50
2019-02-03T06:07:05.985Z,89.50
2019-02-03T06:08:07.788Z,89.60
2019-02-03T06:09:08.275Z,89.50
2019-02-03T06:10:07.897Z,89.40
2019-02-03T06:11:06.076Z,89.50
2019-02-03T06:12:05.078Z,89.60
2019-02-03T06:13:05.176Z,89.40
2019-02-03T06:14:05.387Z,89.40
2019-02-03T06:15:05.720Z,89.40
2019-02-03T06:16:05.001Z,89.20
2019-02-03T06:17:07.837Z,89.20
2019-02-03T06:18:05.794Z,89.20
2019-02-03T06:19:08.367Z,89.30
2019-02-03T06:20:05.458Z,89.30
2019-02-03T06:21:05.565Z,89.30
2019-02-03T06:22:08.223Z,89.20
2019-02-03T06:23:05.459Z,89.20
2019-02-03T06:24:05.940Z,89.10
2019-02-03T06:25:05.096Z,89.00
2019-02-03T06:26:07.715Z,89.00
2019-02-03T06:27:05.681Z,89.00
2019-02-03T06:28:05.754Z,89.20
2019-02-03T06:29:05.993Z,89.10
2019-02-03T06:30:05.303Z,88.90
2019-02-03T06:31:10.497Z,88.90
2019-02-03T06:32:05.426Z,88.90
2019-02-03T06:33:05.524Z,88.80
2019-02-03T06:34:05.554Z,88.80
2019-02-03T06:35:05.661Z,88.80
2019-02-03T06:36:05.758Z,88.90
2019-02-03T06:37:11.044Z,88.80
2019-02-03T06:38:05.007Z,88.80
2019-02-03T06:39:05.321Z,88.80
2019-02-03T06:40:08.370Z,88.70
2019-02-03T06:41:08.225Z,88.70
2019-02-03T06:42:05.154Z,88.70
2019-02-03T06:43:05.245Z,88.70
2019-02-03T06:44:05.346Z,88.80
2019-02-03T06:45:07.641Z,88.70
2019-02-03T06:46:05.587Z,88.70
2019-02-03T06:47:08.393Z,88.60
2019-02-03T06:48:05.342Z,88.60
2019-02-03T06:49:05.572Z,88.60
2019-02-03T06:50:05.807Z,88.60
2019-02-03T06:51:08.578Z,88.50
2019-02-03T06:52:08.242Z,88.50
2019-02-03T06:53:05.369Z,88.50
2019-02-03T06:54:05.500Z,88.50
2019-02-03T06:55:05.660Z,88.50
2019-02-03T06:56:06.142Z,88.50
2019-02-03T06:57:08.167Z,88.60
2019-02-03T06:58:05.232Z,88.70
2019-02-03T06:59:05.345Z,88.60
2019-02-03T07:00:07.978Z,88.50
2019-02-03T07:01:05.982Z,88.60
2019-02-03T07:02:05.045Z,88.50
2019-02-03T07:03:05.287Z,88.40
2019-02-03T07:04:05.641Z,88.40
2019-02-03T07:05:07.706Z,88.20
2019-02-03T07:06:08.240Z,88.20
2019-02-03T07:07:05.242Z,88.20
2019-02-03T07:08:08.061Z,88.20
2019-02-03T07:09:05.063Z,88.20
2019-02-03T07:10:07.713Z,88.20
2019-02-03T07:11:05.666Z,88.20
2019-02-03T07:12:08.728Z,88.10
2019-02-03T07:13:05.074Z,88.20
2019-02-03T07:14:05.234Z,88.10
2019-02-03T07:15:05.414Z,88.10
2019-02-03T07:16:05.562Z,88.10
2019-02-03T07:17:05.848Z,88.10
2019-02-03T07:18:06.015Z,88.00
2019-02-03T07:19:05.195Z,88.00
2019-02-03T07:20:05.372Z,88.00
2019-02-03T07:21:08.062Z,88.10
2019-02-03T07:22:05.141Z,88.10
2019-02-03T07:23:05.202Z,88.00
2019-02-03T07:24:05.219Z,88.10
2019-02-03T07:25:05.292Z,88.20
2019-02-03T07:26:05.373Z,88.20
2019-02-03T07:27:05.458Z,88.20
2019-02-03T07:28:05.918Z,88.20
2019-02-03T07:29:05.377Z,88.20
2019-02-03T07:30:07.945Z,88.30
2019-02-03T07:31:06.376Z,88.30
2019-02-03T07:32:08.022Z,88.30
2019-02-03T07:33:05.959Z,88.30
2019-02-03T07:34:05.986Z,88.30
2019-02-03T07:35:07.638Z,88.30
2019-02-03T07:36:07.069Z,88.30
2019-02-03T07:37:07.944Z,88.30
2019-02-03T07:38:05.923Z,88.30
2019-02-03T07:39:05.171Z,88.30
2019-02-03T07:40:13.110Z,88.20
2019-02-03T07:41:05.417Z,88.20
2019-02-03T07:42:05.548Z,88.20
2019-02-03T07:43:05.647Z,88.30
2019-02-03T07:44:06.099Z,88.30
2019-02-03T07:45:05.592Z,88.30
2019-02-03T07:46:05.858Z,88.30
2019-02-03T07:47:08.597Z,88.30
2019-02-03T07:48:05.613Z,88.30
2019-02-03T07:49:07.731Z,88.20
2019-02-03T07:50:05.908Z,88.20
2019-02-03T07:51:05.984Z,88.20
2019-02-03T07:52:05.384Z,88.10
2019-02-03T07:53:08.971Z,88.10
2019-02-03T07:54:09.016Z,88.00
2019-02-03T07:55:05.128Z,88.00
2019-02-03T07:56:07.761Z,87.90
2019-02-03T07:57:08.244Z,87.80
2019-02-03T07:58:05.251Z,87.90
2019-02-03T07:59:05.511Z,87.90
2019-02-03T08:00:05.956Z,87.80
2019-02-03T08:01:10.567Z,87.60
2019-02-03T08:02:05.717Z,87.60
2019-02-03T08:03:05.886Z,87.60
2019-02-03T08:04:06.136Z,87.50
2019-02-03T08:05:07.829Z,87.70
2019-02-03T08:06:05.978Z,87.60
2019-02-03T08:07:05.075Z,87.60
2019-02-03T08:08:05.179Z,87.60
2019-02-03T08:09:10.558Z,87.50
2019-02-03T08:10:08.002Z,87.50
2019-02-03T08:11:05.920Z,87.50
2019-02-03T08:12:05.033Z,87.40
2019-02-03T08:13:05.236Z,87.20
2019-02-03T08:14:05.373Z,87.30
2019-02-03T08:15:07.906Z,87.50
2019-02-03T08:16:08.739Z,87.40
2019-02-03T08:17:10.303Z,87.30
2019-02-03T08:18:05.235Z,87.30
2019-02-03T08:19:05.331Z,87.30
2019-02-03T08:20:08.010Z,87.30
2019-02-03T08:21:05.138Z,87.30
2019-02-03T08:22:10.324Z,87.20
2019-02-03T08:23:07.852Z,87.20
2019-02-03T08:24:05.935Z,87.30
2019-02-03T08:25:05.011Z,87.30
2019-02-03T08:26:05.047Z,87.30
2019-02-03T08:27:07.776Z,87.30
2019-02-03T08:28:08.434Z,87.30
2019-02-03T08:29:05.387Z,87.30
2019-02-03T08:30:15.243Z,87.30
2019-02-03T08:31:05.262Z,87.30
2019-02-03T08:32:05.397Z,87.30
2019-02-03T08:33:08.089Z,87.20
2019-02-03T08:34:05.156Z,87.20
2019-02-03T08:35:07.760Z,86.90
2019-02-03T08:36:08.282Z,86.90
2019-02-03T08:37:05.376Z,86.90
2019-02-03T08:38:05.487Z,86.80
2019-02-03T08:39:05.715Z,86.70
2019-02-03T08:40:05.808Z,86.60
2019-02-03T08:41:05.865Z,86.70
2019-02-03T08:42:08.447Z,86.80
2019-02-03T08:43:05.469Z,86.80
2019-02-03T08:44:08.124Z,86.80
2019-02-03T08:45:07.649Z,86.80
2019-02-03T08:46:05.681Z,86.90
2019-02-03T08:47:06.026Z,86.80
2019-02-03T08:48:05.478Z,86.80
2019-02-03T08:49:08.073Z,86.60
2019-02-03T08:50:05.091Z,86.60
2019-02-03T08:51:07.856Z,86.50
2019-02-03T08:52:05.794Z,86.50
2019-02-03T08:53:05.941Z,86.50
2019-02-03T08:54:05.092Z,86.40
2019-02-03T08:55:05.483Z,86.50
2019-02-03T08:56:05.750Z,86.60
2019-02-03T08:57:05.931Z,86.60
2019-02-03T08:58:04.996Z,86.60
2019-02-03T08:59:05.072Z,86.70
2019-02-03T09:00:05.319Z,86.70
2019-02-03T09:01:05.426Z,86.90
2019-02-03T09:02:05.492Z,86.80
2019-02-03T09:03:09.019Z,86.80
2019-02-03T09:04:08.076Z,86.70
2019-02-03T09:05:07.831Z,86.70
2019-02-03T09:06:05.837Z,86.70
2019-02-03T09:07:06.050Z,86.70
2019-02-03T09:08:05.311Z,86.80
2019-02-03T09:09:08.003Z,86.80
2019-02-03T09:10:06.028Z,86.80
2019-02-03T09:11:07.580Z,86.70
2019-02-03T09:12:16.312Z,86.80
2019-02-03T09:13:05.308Z,86.80
2019-02-03T09:14:05.390Z,86.80
2019-02-03T09:15:08.021Z,86.60
2019-02-03T09:16:05.093Z,86.60
2019-02-03T09:17:05.193Z,86.60
2019-02-03T09:18:05.355Z,86.60
2019-02-03T09:19:05.497Z,86.70
2019-02-03T09:20:05.594Z,86.80
2019-02-03T09:21:07.784Z,86.70
2019-02-03T09:22:05.722Z,86.70
2019-02-03T09:23:05.044Z,86.80
2019-02-03T09:24:07.826Z,86.70
2019-02-03T09:25:05.834Z,86.70
2019-02-03T09:26:08.958Z,86.60
2019-02-03T09:27:05.177Z,86.60
2019-02-03T09:28:05.304Z,86.50
2019-02-03T09:29:05.445Z,86.40
2019-02-03T09:30:06.036Z,86.50
2019-02-03T09:31:05.297Z,86.50
2019-02-03T09:32:05.462Z,86.50
2019-02-03T09:33:10.653Z,86.40
2019-02-03T09:34:05.700Z,86.30
2019-02-03T09:35:05.893Z,86.30
2019-02-03T09:36:13.709Z,86.20
2019-02-03T09:37:05.705Z,86.20
2019-02-03T09:38:05.870Z,86.20
2019-02-03T09:39:05.929Z,86.20
2019-02-03T09:40:05.120Z,86.10
2019-02-03T09:41:05.242Z,86.20
2019-02-03T09:42:07.898Z,86.20
2019-02-03T09:43:05.890Z,86.20
2019-02-03T09:44:05.143Z,86.20
2019-02-03T09:45:05.155Z,86.20
2019-02-03T09:46:05.193Z,86.10
2019-02-03T09:47:07.839Z,86.00
2019-02-03T09:48:08.276Z,85.80
2019-02-03T09:49:05.318Z,85.80
2019-02-03T09:50:05.548Z,85.80
2019-02-03T09:51:05.666Z,85.80
2019-02-03T09:52:08.437Z,85.90
2019-02-03T09:53:05.722Z,86.00
2019-02-03T09:54:08.410Z,86.00
2019-02-03T09:55:05.554Z,86.00
2019-02-03T09:56:05.704Z,85.80
2019-02-03T09:57:05.913Z,85.80
2019-02-03T09:58:07.603Z,85.90
2019-02-03T09:59:05.730Z,85.90
2019-02-03T10:00:08.686Z,85.90
2019-02-03T10:01:05.016Z,86.00
2019-02-03T10:02:05.167Z,86.00
2019-02-03T10:03:05.434Z,86.00
2019-02-03T10:04:05.605Z,85.90
2019-02-03T10:05:05.302Z,86.00
2019-02-03T10:06:05.363Z,86.10
2019-02-03T10:07:05.639Z,86.20
2019-02-03T10:08:08.676Z,86.10
2019-02-03T10:09:05.801Z,86.20
2019-02-03T10:10:08.429Z,86.30
2019-02-03T10:11:12.647Z,86.20
2019-02-03T10:12:05.795Z,86.20
2019-02-03T10:13:08.488Z,86.00
2019-02-03T10:14:05.520Z,86.00
2019-02-03T10:15:06.042Z,86.00
2019-02-03T10:16:05.398Z,86.00
2019-02-03T10:17:08.057Z,86.00
2019-02-03T10:18:05.075Z,86.00
2019-02-03T10:19:05.253Z,85.90
2019-02-03T10:20:05.360Z,85.60
2019-02-03T10:21:07.919Z,85.60
2019-02-03T10:22:06.322Z,85.50
2019-02-03T10:23:05.586Z,85.60
2019-02-03T10:24:05.803Z,85.60
2019-02-03T10:25:05.876Z,85.60
2019-02-03T10:26:05.930Z,85.70
2019-02-03T10:27:07.569Z,85.70
2019-02-03T10:28:05.679Z,85.70
2019-02-03T10:29:05.847Z,85.80
2019-02-03T10:30:07.798Z,85.60
2019-02-03T10:31:05.750Z,85.50
2019-02-03T10:32:05.813Z,85.50
2019-02-03T10:33:06.001Z,85.70
2019-02-03T10:34:05.147Z,85.70
2019-02-03T10:35:05.352Z,85.70
2019-02-03T10:36:05.489Z,85.70
2019-02-03T10:37:05.625Z,85.60
2019-02-03T10:38:08.365Z,85.80
2019-02-03T10:39:05.374Z,85.70
2019-02-03T10:40:05.480Z,85.80
2019-02-03T10:41:08.113Z,85.90
2019-02-03T10:42:05.133Z,85.80
2019-02-03T10:43:05.286Z,86.00
2019-02-03T10:44:05.435Z,85.80
2019-02-03T10:45:05.580Z,85.90
2019-02-03T10:46:05.628Z,86.00
2019-02-03T10:47:08.164Z,86.10
2019-02-03T10:48:07.647Z,86.10
2019-02-03T10:49:06.087Z,86.20
2019-02-03T10:50:05.329Z,86.10
2019-02-03T10:51:05.424Z,86.10
2019-02-03T10:52:08.130Z,86.10
2019-02-03T10:53:05.080Z,86.10
2019-02-03T10:54:05.167Z,86.10
2019-02-03T10:55:10.602Z,86.20
2019-02-03T10:56:05.865Z,86.20
2019-02-03T10:57:06.038Z,86.10
2019-02-03T10:58:05.231Z,86.20
2019-02-03T10:59:07.781Z,86.30
2019-02-03T11:00:18.981Z,86.30
2019-02-03T11:01:05.196Z,86.30
2019-02-03T11:02:05.317Z,86.30
2019-02-03T11:03:05.023Z,86.30
2019-02-03T11:04:05.116Z,86.40
2019-02-03T11:05:05.200Z,86.40
2019-02-03T11:06:05.183Z,86.40
2019-02-03T11:07:05.378Z,86.40
2019-02-03T11:08:08.222Z,86.50
2019-02-03T11:09:05.146Z,86.50
2019-02-03T11:10:05.574Z,86.50
2019-02-03T11:11:06.036Z,86.50
2019-02-03T11:12:05.222Z,86.50
2019-02-03T11:13:07.807Z,86.60
2019-02-03T11:14:05.925Z,86.60
2019-02-03T11:15:05.015Z,86.60
2019-02-03T11:16:07.787Z,86.60
2019-02-03T11:17:08.377Z,86.70
2019-02-03T11:18:05.880Z,86.70
2019-02-03T11:19:05.317Z,86.70
2019-02-03T11:20:08.040Z,86.60
2019-02-03T11:21:05.208Z,86.70
2019-02-03T11:22:10.408Z,86.70
2019-02-03T11:23:07.841Z,86.70
2019-02-03T11:24:05.877Z,86.70
2019-02-03T11:25:06.293Z,86.80
2019-02-03T11:26:05.509Z,86.80
2019-02-03T11:27:05.629Z,86.80
2019-02-03T11:28:08.373Z,86.90
2019-02-03T11:29:05.327Z,86.90
2019-02-03T11:30:05.910Z,86.90
2019-02-03T11:31:08.500Z,86.90
2019-02-03T11:32:07.968Z,87.00
2019-02-03T11:33:10.033Z,87.00
2019-02-03T11:34:05.192Z,86.90
2019-02-03T11:35:07.857Z,87.00
2019-02-03T11:36:05.783Z,87.00
2019-02-03T11:37:06.012Z,87.00
2019-02-03T11:38:05.197Z,87.00
2019-02-03T11:39:08.056Z,87.20
2019-02-03T11:40:05.414Z,87.20
2019-02-03T11:41:05.899Z,87.00
2019-02-03T11:42:05.149Z,87.00
2019-02-03T11:43:05.318Z,87.10
2019-02-03T11:44:05.383Z,87.20
2019-02-03T11:45:05.527Z,87.20
2019-02-03T11:46:08.077Z,87.20
2019-02-03T11:47:07.572Z,87.20
2019-02-03T11:48:05.660Z,87.20
2019-02-03T11:49:05.042Z,87.10
2019-02-03T11:50:05.309Z,87.00
2019-02-03T11:51:08.064Z,87.10
2019-02-03T11:52:12.685Z,87.10
2019-02-03T11:53:05.588Z,87.20
2019-02-03T11:54:08.327Z,87.20
2019-02-03T11:55:05.284Z,87.20
2019-02-03T11:56:05.643Z,87.20
2019-02-03T11:57:06.078Z,87.20
2019-02-03T11:58:07.731Z,87.20
2019-02-03T11:59:05.746Z,87.20
2019-02-03T12:00:05.812Z,87.30
2019-02-03T12:01:06.017Z,87.30
2019-02-03T12:02:05.237Z,87.30
2019-02-03T12:03:05.304Z,87.30
2019-02-03T12:04:05.349Z,87.30
2019-02-03T12:05:05.822Z,87.40
2019-02-03T12:06:05.211Z,87.50
2019-02-03T12:07:07.807Z,87.40
2019-02-03T12:08:08.259Z,87.50
2019-02-03T12:09:07.731Z,87.70
2019-02-03T12:10:08.271Z,87.40
2019-02-03T12:11:05.281Z,87.50
2019-02-03T12:12:05.373Z,87.40
2019-02-03T12:13:05.875Z,87.40
2019-02-03T12:14:05.455Z,87.30
2019-02-03T12:15:05.634Z,87.30
2019-02-03T12:16:08.486Z,87.30
2019-02-03T12:17:08.064Z,87.50
2019-02-03T12:18:07.616Z,87.50
2019-02-03T12:19:08.087Z,87.60
2019-02-03T12:20:07.517Z,87.70
2019-02-03T12:21:05.884Z,87.70
2019-02-03T12:22:05.396Z,87.80
2019-02-03T12:23:05.459Z,87.90
2019-02-03T12:24:05.613Z,87.90
2019-02-03T12:25:05.775Z,87.80
2019-02-03T12:26:10.966Z,87.80
2019-02-03T12:27:08.589Z,87.80
2019-02-03T12:28:05.608Z,87.80
2019-02-03T12:29:05.898Z,87.80
2019-02-03T12:30:05.242Z,87.80
2019-02-03T12:31:05.543Z,87.80
2019-02-03T12:32:05.766Z,87.80
2019-02-03T12:33:08.465Z,87.60
2019-02-03T12:34:05.420Z,87.60
2019-02-03T12:35:05.516Z,87.60
2019-02-03T12:36:05.799Z,87.60
2019-02-03T12:37:06.061Z,87.70
2019-02-03T12:38:05.251Z,87.60
2019-02-03T12:39:07.877Z,87.50
2019-02-03T12:40:08.495Z,87.30
2019-02-03T12:41:05.377Z,87.40
2019-02-03T12:42:13.724Z,87.30
2019-02-03T12:43:08.304Z,87.30
2019-02-03T12:44:05.232Z,87.30
2019-02-03T12:45:05.450Z,87.30
2019-02-03T12:46:06.441Z,87.30
2019-02-03T12:47:05.943Z,87.20
2019-02-03T12:48:07.754Z,86.90
2019-02-03T12:49:08.397Z,86.90
2019-02-03T12:50:05.371Z,86.90
2019-02-03T12:51:05.602Z,86.90
2019-02-03T12:52:05.847Z,87.00